Time;durP1;ratioP1;P1;durP2;ratioP2;P2;SDS_P1;SDS_P2;PMS_P1;PMS_P2;Temp;Humidity;BMP_temperature;BMP_pressure;BME280_temperature;BME280_humidity;BME280_pressure;Samples;Min_cycle;Max_cycle;Signal;HPM_P1;HPM_P2
2022/10/29 00:01:40;;;;;;;;;22.00;16.00;;;;;19.64;71.95;101394.88;5034747;28;45393;-62
2022/10/29 00:04:05;;;;;;;;;23.33;18.33;;;;;19.64;71.85;101381.41;5035551;28;45367;-62
2022/10/29 00:06:31;;;;;;;;;24.33;21.67;;;;;19.59;71.83;101372.81;5033319;28;45612;-61
2022/10/29 00:08:57;;;;;;;;;21.33;17.67;;;;;19.57;71.83;101377.50;5015284;28;45669;-61
2022/10/29 00:11:22;;;;;;;;;21.00;18.67;;;;;19.55;71.47;101364.13;5019033;28;45440;-63
2022/10/29 00:13:53;;;;;;;;;17.67;16.67;;;;;19.63;71.54;101375.16;5022716;28;45448;-62
2022/10/29 00:16:22;;;;;;;;;19.00;16.33;;;;;19.62;71.96;101359.09;5028251;28;45442;-61
2022/10/29 00:18:47;;;;;;;;;22.33;19.33;;;;;19.60;71.72;101358.34;5038636;28;45899;-62
2022/10/29 00:21:19;;;;;;;;;22.67;17.33;;;;;19.62;71.55;101361.78;5054035;28;45376;-61
2022/10/29 00:23:46;;;;;;;;;18.00;16.33;;;;;19.57;71.34;101335.19;5038935;28;45528;-63
2022/10/29 00:26:12;;;;;;;;;15.00;14.33;;;;;19.60;71.31;101332.22;5039550;28;45256;-62
2022/10/29 00:28:38;;;;;;;;;17.33;14.67;;;;;19.63;70.77;101339.22;5041347;28;45334;-62
2022/10/29 00:31:10;;;;;;;;;17.67;15.00;;;;;19.63;71.20;101331.97;5020751;28;45659;-62
2022/10/29 00:33:35;;;;;;;;;18.67;15.67;;;;;19.58;71.23;101336.03;5027020;28;45594;-62
2022/10/29 00:36:02;;;;;;;;;15.00;15.00;;;;;19.62;71.22;101348.28;5028418;28;45320;-62
2022/10/29 00:38:29;;;;;;;;;18.33;16.33;;;;;19.56;71.13;101346.97;5019050;28;45769;-63
2022/10/29 00:40:55;;;;;;;;;13.67;13.67;;;;;19.55;71.23;101350.66;5018510;28;45282;-62
2022/10/29 00:43:23;;;;;;;;;17.00;15.33;;;;;19.54;71.02;101318.38;5018887;28;45266;-63
2022/10/29 00:45:58;;;;;;;;;15.67;14.67;;;;;19.55;71.09;101339.00;5034272;28;45409;-63
2022/10/29 00:48:26;;;;;;;;;19.00;16.00;;;;;19.54;70.80;101323.75;5017668;28;45564;-63
2022/10/29 00:50:53;;;;;;;;;14.67;14.00;;;;;19.52;71.06;101312.22;5005773;28;45256;-63
2022/10/29 00:53:23;;;;;;;;;18.00;18.00;;;;;19.52;71.02;101315.75;5019382;28;45354;-64
2022/10/29 00:55:49;;;;;;;;;20.67;15.00;;;;;19.49;71.29;101309.78;5019403;28;45410;-61
2022/10/29 00:58:15;;;;;;;;;19.33;16.00;;;;;19.50;71.44;101308.78;5017620;28;46205;-62
2022/10/29 01:00:42;;;;;;;;;15.00;14.00;;;;;19.44;71.49;101304.78;5018119;28;45494;-63
2022/10/29 01:03:08;;;;;;;;;14.67;12.33;;;;;19.41;71.47;101313.97;5017952;28;45281;-62
2022/10/29 01:05:35;;;;;;;;;17.67;12.33;;;;;19.39;71.20;101310.50;5022443;28;45961;-63
2022/10/29 01:08:02;;;;;;;;;14.33;13.00;;;;;19.40;71.27;101295.19;5000145;28;45430;-62
2022/10/29 01:10:48;;;;;;;;;17.00;14.33;;;;;19.42;71.73;101280.63;5016169;28;45843;-62
2022/10/29 01:13:39;;;;;;;;;16.67;14.67;;;;;19.42;71.52;101291.41;5018742;28;45517;-62
2022/10/29 01:16:11;;;;;;;;;13.67;13.67;;;;;19.42;71.61;101286.00;5018982;28;45918;-62
2022/10/29 01:18:39;;;;;;;;;14.67;11.67;;;;;19.43;71.42;101285.03;5017199;28;46094;-62
2022/10/29 01:21:41;;;;;;;;;19.00;16.00;;;;;19.43;71.21;101278.78;5017601;28;45236;-63
2022/10/29 01:24:24;;;;;;;;;16.00;12.33;;;;;19.39;71.36;101261.97;5013626;28;45628;-63
2022/10/29 01:26:57;;;;;;;;;12.67;11.67;;;;;19.37;71.42;101266.63;5019078;28;45435;-61
2022/10/29 01:29:54;;;;;;;;;15.33;12.67;;;;;19.36;71.28;101264.91;5014887;28;46456;-63
2022/10/29 01:32:39;;;;;;;;;14.67;13.67;;;;;19.33;71.01;101270.56;5016076;28;45433;-62
2022/10/29 01:35:23;;;;;;;;;20.33;18.33;;;;;19.31;70.88;101266.28;5017987;28;45471;-61
2022/10/29 01:38:06;;;;;;;;;10.67;10.00;;;;;19.29;70.85;101258.34;5017564;28;45465;-61
2022/10/29 01:40:48;;;;;;;;;16.33;14.33;;;;;19.29;70.89;101258.34;5037006;28;46712;-63
2022/10/29 01:43:22;;;;;;;;;12.67;12.00;;;;;19.28;70.79;101253.94;5036507;28;45348;-63
2022/10/29 01:45:54;;;;;;;;;12.67;12.67;;;;;19.25;70.61;101250.59;5030875;28;45273;-62
2022/10/29 01:48:28;;;;;;;;;13.67;13.67;;;;;19.20;71.03;101253.69;5037570;28;45528;-63
2022/10/29 01:50:56;;;;;;;;;13.33;13.33;;;;;19.19;70.86;101235.78;5037564;28;46136;-63
2022/10/29 01:53:22;;;;;;;;;12.33;12.33;;;;;19.19;70.70;101219.63;5036243;28;45358;-61
2022/10/29 01:55:48;;;;;;;;;12.67;12.67;;;;;19.19;70.85;101219.63;5027103;28;45225;-62
2022/10/29 01:58:18;;;;;;;;;15.67;12.33;;;;;19.20;70.28;101213.25;5031310;28;45529;-62
2022/10/29 02:00:52;;;;;;;;;14.00;12.00;;;;;19.21;70.50;101212.25;5037705;28;45482;-62
2022/10/29 02:03:29;;;;;;;;;15.33;13.00;;;;;19.22;70.32;101216.66;5038252;28;45845;-61
2022/10/29 02:06:32;;;;;;;;;15.67;12.67;;;;;19.19;70.06;101219.63;5037223;28;45496;-63
2022/10/29 02:09:04;;;;;;;;;12.67;12.67;;;;;19.20;69.96;101199.75;5018531;28;45410;-62
2022/10/29 02:11:38;;;;;;;;;15.67;13.33;;;;;19.22;69.93;101189.69;5035167;28;46966;-62
2022/10/29 02:14:11;;;;;;;;;13.00;10.00;;;;;19.22;69.79;101188.84;5019079;28;45490;-61
2022/10/29 02:16:36;;;;;;;;;11.00;10.33;;;;;19.22;69.45;101187.00;5036948;28;45333;-62
2022/10/29 02:19:02;;;;;;;;;13.00;13.00;;;;;19.22;69.60;101180.75;5052674;28;45753;-62
2022/10/29 02:21:30;;;;;;;;;13.67;12.67;;;;;19.19;69.61;101181.88;5036919;28;46105;-62
2022/10/29 02:23:55;;;;;;;;;11.67;10.67;;;;;19.08;69.52;101171.09;5052443;28;45271;-63
2022/10/29 02:26:21;;;;;;;;;13.67;11.00;;;;;19.15;69.44;101191.19;5035411;28;45558;-61
2022/10/29 02:28:46;;;;;;;;;7.33;6.00;;;;;19.11;69.30;101182.50;5034624;28;45435;-62
2022/10/29 02:31:12;;;;;;;;;10.67;10.67;;;;;19.12;69.30;101175.25;5027217;28;47719;-63
2022/10/29 02:33:37;;;;;;;;;12.67;12.67;;;;;19.15;69.20;101172.31;5016920;28;45397;-63
2022/10/29 02:36:03;;;;;;;;;13.67;12.00;;;;;19.14;68.96;101178.69;5017055;28;45394;-61
2022/10/29 02:38:29;;;;;;;;;11.33;11.33;;;;;19.10;69.14;101164.59;5017078;28;45458;-61
2022/10/29 02:40:54;;;;;;;;;14.00;11.00;;;;;19.07;69.18;101166.69;5017046;28;45995;-62
2022/10/29 02:43:19;;;;;;;;;15.67;14.67;;;;;19.07;69.25;101166.69;5016790;28;45502;-61
2022/10/29 02:45:45;;;;;;;;;15.67;14.00;;;;;19.09;69.51;101167.44;5016846;28;45430;-62
2022/10/29 02:48:10;;;;;;;;;12.67;11.33;;;;;19.05;69.12;101157.88;5019374;28;45805;-61
2022/10/29 02:50:35;;;;;;;;;16.33;13.67;;;;;19.05;69.42;101169.53;5031197;28;45550;-62
2022/10/29 02:53:01;;;;;;;;;13.00;10.50;;;;;19.02;69.26;101158.16;5036763;28;45479;-61
2022/10/29 02:55:26;;;;;;;;;8.00;8.00;;;;;19.06;69.06;101160.47;5036974;28;45371;-61
2022/10/29 02:57:52;;;;;;;;;12.00;10.67;;;;;19.07;69.21;101155.91;5036813;28;45493;-61
2022/10/29 03:00:17;;;;;;;;;14.67;12.00;;;;;19.03;69.14;101149.06;5036345;28;46048;-60
2022/10/29 03:02:43;;;;;;;;;15.33;14.33;;;;;19.08;69.21;101158.47;5021126;28;45550;-62
2022/10/29 03:05:08;;;;;;;;;12.33;12.33;;;;;19.09;69.14;101149.41;5015329;28;45253;-61
2022/10/29 03:07:37;;;;;;;;;19.00;13.00;;;;;19.13;68.92;101144.63;5018673;28;45501;-61
2022/10/29 03:10:04;;;;;;;;;14.67;11.00;;;;;19.10;68.92;101126.00;5051729;28;46852;-61
2022/10/29 03:12:30;;;;;;;;;12.00;9.00;;;;;19.06;68.74;101127.25;5036236;28;45376;-61
2022/10/29 03:14:55;;;;;;;;;10.33;10.33;;;;;19.05;68.63;101133.63;5036058;28;45317;-62
2022/10/29 03:17:21;;;;;;;;;16.67;12.33;;;;;19.08;68.94;101136.91;5020055;28;45707;-62
2022/10/29 03:19:46;;;;;;;;;15.00;14.00;;;;;19.03;68.45;101131.06;5028717;28;46010;-62
2022/10/29 03:22:11;;;;;;;;;10.33;9.67;;;;;19.03;68.87;101127.50;5017770;28;45434;-62
2022/10/29 03:24:37;;;;;;;;;15.67;15.00;;;;;19.06;69.18;101146.13;5019230;28;45394;-61
2022/10/29 03:27:02;;;;;;;;;14.33;11.67;;;;;19.07;68.58;101153.22;5016160;28;45522;-61
2022/10/29 03:29:28;;;;;;;;;11.67;10.00;;;;;19.05;68.92;101150.66;5017407;28;46145;-63
2022/10/29 03:31:53;;;;;;;;;18.00;13.67;;;;;18.93;68.81;101121.16;5015852;28;45459;-61
2022/10/29 03:34:19;;;;;;;;;12.00;12.00;;;;;18.90;68.84;101124.13;5016090;28;45470;-61
2022/10/29 03:36:44;;;;;;;;;11.67;11.67;;;;;19.00;68.65;101144.78;5030222;28;45551;-62
2022/10/29 03:39:09;;;;;;;;;12.00;11.00;;;;;18.95;68.59;101140.75;5016511;28;45352;-61
2022/10/29 03:41:34;;;;;;;;;12.33;11.00;;;;;18.95;68.77;101146.16;5026650;28;45342;-61
2022/10/29 03:44:00;;;;;;;;;13.00;13.00;;;;;18.98;68.64;101156.66;5035429;28;45342;-63
2022/10/29 03:46:25;;;;;;;;;13.00;13.00;;;;;18.98;68.70;101148.59;5036265;28;45300;-63
2022/10/29 03:48:51;;;;;;;;;14.33;12.00;;;;;18.95;68.59;101135.38;5019501;28;47133;-63
2022/10/29 03:51:16;;;;;;;;;12.67;11.00;;;;;18.98;68.61;101127.03;5017492;28;45240;-62
2022/10/29 03:53:41;;;;;;;;;14.67;11.33;;;;;18.88;68.80;101128.75;5035725;28;45262;-61
2022/10/29 03:56:08;;;;;;;;;17.00;12.00;;;;;18.85;69.13;101129.88;5029172;28;45234;-62
2022/10/29 03:58:34;;;;;;;;;13.00;10.67;;;;;18.83;69.02;101142.63;5027529;28;46537;-62
2022/10/29 04:01:01;;;;;;;;;15.00;13.67;;;;;18.80;68.99;101122.16;5018493;28;45516;-61
2022/10/29 04:03:29;;;;;;;;;12.67;10.33;;;;;18.81;69.13;101112.25;5015959;28;45389;-61
2022/10/29 04:05:55;;;;;;;;;14.33;11.67;;;;;18.80;69.06;101111.41;5015977;28;45611;-60
2022/10/29 04:08:21;;;;;;;;;10.00;10.00;;;;;18.73;69.02;101107.47;5028501;28;46006;-63
2022/10/29 04:10:48;;;;;;;;;11.67;11.67;;;;;18.76;68.99;101120.72;5035389;28;45386;-61
2022/10/29 04:13:14;;;;;;;;;12.67;9.00;;;;;18.75;68.77;101121.72;5032109;28;45479;-62
2022/10/29 04:15:40;;;;;;;;;15.67;13.00;;;;;18.81;68.83;101137.34;5024798;27;45330;-62
2022/10/29 04:18:07;;;;;;;;;11.33;11.00;;;;;18.82;68.97;101140.91;5015241;28;45382;-62
2022/10/29 04:20:32;;;;;;;;;16.33;11.67;;;;;18.76;68.91;101131.50;5014971;28;45412;-62
2022/10/29 04:22:58;;;;;;;;;15.00;11.33;;;;;18.77;68.93;101135.91;5018104;28;45290;-61
2022/10/29 04:25:23;;;;;;;;;14.33;13.00;;;;;18.73;68.78;101137.13;5024836;28;49092;-62
2022/10/29 04:27:48;;;;;;;;;12.33;12.00;;;;;18.74;68.76;101155.00;5034856;28;46176;-62
2022/10/29 04:30:14;;;;;;;;;12.00;11.00;;;;;18.75;68.61;101145.06;5014681;28;46157;-60
2022/10/29 04:32:39;;;;;;;;;11.67;10.33;;;;;18.71;68.74;101130.16;5035493;28;45275;-60
2022/10/29 04:35:05;;;;;;;;;10.33;10.00;;;;;18.64;68.75;101116.34;5035409;28;45533;-61
2022/10/29 04:37:30;;;;;;;;;15.67;13.33;;;;;18.69;68.77;101124.88;5035292;28;46475;-61
2022/10/29 04:39:56;;;;;;;;;13.00;12.67;;;;;18.69;68.72;101135.66;5035940;28;45478;-62
2022/10/29 04:42:21;;;;;;;;;12.00;11.00;;;;;18.70;68.65;101123.03;5033583;28;45399;-62
2022/10/29 04:44:47;;;;;;;;;10.00;7.33;;;;;18.69;68.63;101108.72;5016200;28;46622;-62
2022/10/29 04:47:12;;;;;;;;;11.00;10.00;;;;;18.69;68.67;101114.09;5015197;28;46026;-62
2022/10/29 04:49:38;;;;;;;;;16.00;11.33;;;;;18.66;68.81;101122.44;5015548;28;45272;-63
2022/10/29 04:52:03;;;;;;;;;13.33;12.00;;;;;18.68;68.81;101115.09;5015750;28;45458;-63
2022/10/29 04:54:29;;;;;;;;;12.67;11.67;;;;;18.68;68.85;101114.25;5016381;28;45603;-62
2022/10/29 04:56:54;;;;;;;;;20.33;17.33;;;;;18.72;68.72;101113.84;5024388;28;45513;-63
2022/10/29 04:59:19;;;;;;;;;14.67;14.67;;;;;18.65;68.59;101096.50;5039017;28;45501;-61
2022/10/29 05:01:45;;;;;;;;;16.33;12.67;;;;;18.72;68.56;101108.47;5022100;28;45470;-62
2022/10/29 05:04:10;;;;;;;;;14.00;12.00;;;;;18.71;68.40;101104.06;5018500;28;45549;-63
2022/10/29 05:06:35;;;;;;;;;12.33;10.33;;;;;18.66;68.53;101102.75;5018015;28;45948;-61
2022/10/29 05:09:01;;;;;;;;;11.33;8.67;;;;;18.62;68.57;101099.41;5017926;28;45411;-62
2022/10/29 05:11:26;;;;;;;;;13.00;12.00;;;;;18.67;68.50;101099.91;5018468;28;45446;-61
2022/10/29 05:13:52;;;;;;;;;15.00;13.00;;;;;18.67;68.43;101105.31;5018017;28;45621;-62
2022/10/29 05:16:17;;;;;;;;;12.00;12.00;;;;;18.63;68.44;101098.44;5017605;28;45491;-62
2022/10/29 05:18:42;;;;;;;;;11.00;11.00;;;;;18.69;68.13;101097.94;5030241;28;45372;-63
2022/10/29 05:21:08;;;;;;;;;11.33;11.33;;;;;18.64;68.22;101086.69;5030850;28;45329;-62
2022/10/29 05:23:33;;;;;;;;;18.00;13.33;;;;;18.62;68.71;101085.06;5021613;28;45537;-61
2022/10/29 05:25:59;;;;;;;;;13.00;11.00;;;;;18.62;68.37;101094.03;5036384;28;47482;-62
2022/10/29 05:28:24;;;;;;;;;12.33;12.00;;;;;18.62;68.55;101102.09;5034013;28;45432;-62
2022/10/29 05:30:51;;;;;;;;;14.00;12.00;;;;;18.58;68.58;101089.84;5017062;28;45366;-61
2022/10/29 05:33:20;;;;;;;;;13.33;11.00;;;;;18.58;68.70;101087.16;5017729;28;45463;-63
2022/10/29 05:35:49;;;;;;;;;11.67;11.67;;;;;18.56;68.63;101086.44;5016700;28;47663;-62
2022/10/29 05:38:16;;;;;;;;;18.67;15.67;;;;;18.52;69.02;101085.81;5029903;28;45392;-63
2022/10/29 05:40:43;;;;;;;;;17.67;14.33;;;;;18.49;68.81;101078.00;5025302;28;45323;-62
2022/10/29 05:43:11;;;;;;;;;12.67;11.00;;;;;18.48;68.95;101064.63;5017217;28;45596;-63
2022/10/29 05:45:36;;;;;;;;;19.00;16.33;;;;;18.47;68.91;101060.22;5018689;28;45403;-62
2022/10/29 05:48:03;;;;;;;;;17.00;13.67;;;;;18.52;68.92;101058.91;5017170;28;45434;-62
2022/10/29 05:50:30;;;;;;;;;21.67;15.67;;;;;18.51;69.14;101065.28;5021500;28;45375;-61
2022/10/29 05:53:00;;;;;;;;;20.00;18.00;;;;;18.48;68.98;101056.56;5037876;28;45169;-62
2022/10/29 05:55:26;;;;;;;;;13.00;12.00;;;;;18.50;68.83;101060.88;5027881;28;45592;-61
2022/10/29 05:57:56;;;;;;;;;18.00;15.67;;;;;18.51;68.81;101067.09;5031960;28;45343;-60
2022/10/29 06:00:21;;;;;;;;;14.67;11.00;;;;;18.51;68.60;101061.72;5015397;28;45314;-61
2022/10/29 06:02:47;;;;;;;;;14.33;13.33;;;;;18.45;68.60;101048.72;5017613;28;45257;-62
2022/10/29 06:05:12;;;;;;;;;13.67;11.33;;;;;18.51;68.46;101067.09;5017009;28;46044;-61
2022/10/29 06:07:38;;;;;;;;;17.67;13.33;;;;;18.52;68.43;101058.03;5014814;28;45326;-61
2022/10/29 06:10:04;;;;;;;;;9.00;9.00;;;;;18.54;68.78;101058.75;5035900;28;45418;-62
2022/10/29 06:12:33;;;;;;;;;16.33;11.00;;;;;18.54;68.55;101050.69;5027057;28;45370;-63
2022/10/29 06:14:58;;;;;;;;;15.67;14.00;;;;;18.54;67.84;101056.94;5016591;28;46149;-62
2022/10/29 06:17:24;;;;;;;;;13.67;12.67;;;;;18.46;68.36;101032.44;5017112;28;45447;-61
2022/10/29 06:19:49;;;;;;;;;19.33;13.33;;;;;18.53;67.84;101047.13;5017449;28;45457;-61
2022/10/29 06:22:15;;;;;;;;;11.00;11.00;;;;;18.52;67.62;101042.72;5017540;28;45259;-62
2022/10/29 06:24:40;;;;;;;;;13.67;9.33;;;;;18.50;67.52;101043.84;5016748;28;46306;-62
2022/10/29 06:27:06;;;;;;;;;12.67;9.67;;;;;18.51;67.45;101040.16;5036606;28;45425;-62
2022/10/29 06:29:31;;;;;;;;;15.33;11.33;;;;;18.52;67.76;101041.88;5020434;28;45334;-61
2022/10/29 06:31:56;;;;;;;;;11.67;10.33;;;;;18.56;67.50;101051.41;5016580;28;45577;-65
2022/10/29 06:34:22;;;;;;;;;17.00;11.33;;;;;18.56;67.55;101056.78;5016578;28;45257;-62
2022/10/29 06:36:47;;;;;;;;;14.33;9.67;;;;;18.56;67.16;101063.03;5015529;28;45441;-62
2022/10/29 06:39:12;;;;;;;;;13.33;11.00;;;;;18.58;67.14;101071.00;5017332;28;46879;-61
2022/10/29 06:41:38;;;;;;;;;13.33;11.00;;;;;18.43;67.42;101061.47;5016146;28;45479;-61
2022/10/29 06:44:03;;;;;;;;;15.00;10.33;;;;;18.58;67.29;101085.31;5018672;28;45465;-62
2022/10/29 06:46:29;;;;;;;;;12.00;11.33;;;;;18.58;67.05;101060.22;5014171;28;45397;-61
2022/10/29 06:48:55;;;;;;;;;11.33;10.00;;;;;18.50;67.24;101052.78;5014773;28;45507;-62
2022/10/29 06:51:21;;;;;;;;;12.00;10.67;;;;;18.61;67.30;101059.94;5017938;28;45585;-64
2022/10/29 06:53:47;;;;;;;;;13.33;11.67;;;;;18.53;67.46;101071.38;5015552;28;46428;-63
2022/10/29 06:56:13;;;;;;;;;11.00;11.00;;;;;18.62;67.19;101079.66;5015817;28;46017;-62
2022/10/29 06:58:38;;;;;;;;;15.33;11.33;;;;;18.64;67.52;101088.53;5016183;28;45371;-61
2022/10/29 07:01:04;;;;;;;;;13.67;11.00;;;;;18.63;67.52;101084.97;5014175;28;45699;-61
2022/10/29 07:03:29;;;;;;;;;14.00;12.00;;;;;18.61;67.63;101073.44;5017675;28;45430;-62
2022/10/29 07:05:58;;;;;;;;;17.67;13.67;;;;;18.64;67.24;101072.38;5015643;28;45372;-62
2022/10/29 07:08:24;;;;;;;;;13.33;10.00;;;;;18.62;67.24;101069.78;5014891;28;45351;-62
2022/10/29 07:10:51;;;;;;;;;14.67;12.00;;;;;18.59;67.22;101067.31;5019056;28;45699;-62
2022/10/29 07:13:17;;;;;;;;;12.33;12.33;;;;;18.54;67.29;101045.31;5015748;28;45425;-64
2022/10/29 07:15:42;;;;;;;;;8.67;7.00;;;;;18.48;67.18;101029.63;5019826;28;45471;-61
2022/10/29 07:18:08;;;;;;;;;11.67;11.67;;;;;18.58;66.92;101054.81;5016998;28;45715;-63
2022/10/29 07:20:36;;;;;;;;;12.00;10.67;;;;;18.61;66.68;101059.94;5018582;28;47240;-63
2022/10/29 07:23:02;;;;;;;;;12.33;9.33;;;;;18.66;66.77;101059.63;5051626;28;48596;-61
2022/10/29 07:25:28;;;;;;;;;12.00;11.00;;;;;18.65;66.83;101058.78;5016395;28;45567;-63
2022/10/29 07:27:54;;;;;;;;;14.67;14.33;;;;;18.59;66.74;101053.84;5021918;28;45433;-61
2022/10/29 07:30:19;;;;;;;;;17.00;13.67;;;;;18.64;66.82;101051.69;5013714;28;45470;-63
2022/10/29 07:32:45;;;;;;;;;12.33;11.67;;;;;18.64;66.49;101046.28;5019409;28;45399;-65
2022/10/29 07:35:10;;;;;;;;;11.33;11.33;;;;;18.59;66.62;101029.59;5015172;28;44842;-63
2022/10/29 07:37:36;;;;;;;;;14.00;10.00;;;;;18.66;66.30;101038.06;5014293;28;45677;-66
2022/10/29 07:40:01;;;;;;;;;13.33;12.67;;;;;18.70;66.41;101045.78;5016377;28;45621;-60
2022/10/29 07:42:27;;;;;;;;;12.00;12.00;;;;;18.73;66.29;101039.25;5025813;28;45687;-61
2022/10/29 07:44:52;;;;;;;;;17.00;13.33;;;;;18.73;65.99;101040.13;5051168;28;45414;-65
2022/10/29 07:47:17;;;;;;;;;15.67;13.00;;;;;18.76;65.91;101036.34;5035454;28;45488;-63
2022/10/29 07:49:43;;;;;;;;;14.00;12.33;;;;;18.77;65.91;101030.81;5027347;28;45263;-61
2022/10/29 07:52:09;;;;;;;;;13.67;10.67;;;;;18.80;65.87;101035.94;5015658;28;45736;-60
2022/10/29 07:54:34;;;;;;;;;13.33;10.33;;;;;18.82;65.77;101039.38;5015159;28;45284;-62
2022/10/29 07:57:00;;;;;;;;;12.67;12.33;;;;;18.85;65.82;101046.31;5016220;28;45770;-62
2022/10/29 07:59:28;;;;;;;;;11.00;11.00;;;;;18.88;65.73;101039.81;5017157;28;45221;-65
2022/10/29 08:01:54;;;;;;;;;16.00;12.33;;;;;18.90;65.49;101046.81;5015541;28;45448;-63
2022/10/29 08:04:19;;;;;;;;;12.67;11.67;;;;;18.92;65.34;101054.78;5015759;28;45454;-61
2022/10/29 08:06:45;;;;;;;;;18.67;12.00;;;;;18.90;65.40;101056.75;5016553;28;45322;-64
2022/10/29 08:09:11;;;;;;;;;14.67;11.67;;;;;18.94;65.10;101058.19;5016107;28;45475;-61
2022/10/29 08:11:36;;;;;;;;;15.00;14.33;;;;;18.97;65.20;101068.72;5015800;28;45506;-62
2022/10/29 08:14:02;;;;;;;;;14.33;14.33;;;;;19.00;65.10;101063.91;5015590;28;45386;-62
2022/10/29 08:16:27;;;;;;;;;19.33;13.00;;;;;19.08;64.79;101076.75;5014687;28;45300;-62
2022/10/29 08:18:52;;;;;;;;;18.00;15.33;;;;;19.11;65.09;101081.88;5035620;28;45343;-61
2022/10/29 08:21:18;;;;;;;;;14.67;11.33;;;;;19.06;64.40;101062.56;5050525;28;45479;-62
2022/10/29 08:23:44;;;;;;;;;12.00;9.00;;;;;19.18;64.46;101074.16;5033934;28;45268;-62
2022/10/29 08:26:11;;;;;;;;;12.00;9.33;;;;;19.23;64.38;101080.84;5022107;28;45478;-63
2022/10/29 08:28:36;;;;;;;;;12.00;12.00;;;;;19.30;63.77;101079.34;5010043;28;45378;-60
2022/10/29 08:31:02;;;;;;;;;19.67;14.33;;;;;19.21;64.30;101050.47;5018130;28;45232;-61
2022/10/29 08:33:27;;;;;;;;;12.00;12.00;;;;;19.43;63.64;101081.88;5018915;28;45844;-61
2022/10/29 08:35:53;;;;;;;;;15.00;12.33;;;;;19.41;62.92;101073.06;5033354;28;45832;-64
2022/10/29 08:38:22;;;;;;;;;13.00;11.67;;;;;19.39;63.07;101066.91;5037674;28;45366;-63
2022/10/29 08:40:53;;;;;;;;;15.67;13.00;;;;;19.48;63.10;101070.66;5038471;28;46463;-64
2022/10/29 08:43:59;;;;;;;;;13.00;11.67;;;;;19.49;62.90;101081.31;5019246;28;45434;-63
2022/10/29 08:46:51;;;;;;;;;15.67;11.33;;;;;19.49;63.24;101064.28;5020750;28;45862;-62
2022/10/29 08:49:30;;;;;;;;;17.33;15.33;;;;;19.57;63.06;101075.31;5016833;28;45696;-62
2022/10/29 08:52:02;;;;;;;;;12.67;9.67;;;;;19.59;62.65;101073.34;5015101;28;46262;-63
2022/10/29 08:54:33;;;;;;;;;16.00;13.00;;;;;19.63;62.76;101067.53;5017830;28;45266;-62
2022/10/29 08:57:05;;;;;;;;;14.67;13.33;;;;;19.65;62.13;101064.69;5018058;28;45451;-63
2022/10/29 08:59:38;;;;;;;;;17.00;16.33;;;;;19.68;62.31;101064.47;5016613;28;45634;-62
2022/10/29 09:02:13;;;;;;;;;14.33;11.33;;;;;19.71;62.55;101053.38;5015304;28;47742;-63
2022/10/29 09:04:38;;;;;;;;;15.00;11.00;;;;;19.75;62.10;101052.13;5010258;28;45501;-63
2022/10/29 09:07:45;;;;;;;;;17.67;13.00;;;;;19.82;62.05;101049.75;5026585;28;45357;-62
2022/10/29 09:10:29;;;;;;;;;16.67;15.33;;;;;19.95;61.71;101055.78;5006296;28;45437;-62
2022/10/29 09:13:31;;;;;;;;;19.67;13.67;;;;;20.05;60.69;101062.06;5017162;28;45948;-64
2022/10/29 09:16:00;;;;;;;;;12.67;10.00;;;;;20.14;60.82;101071.19;5015766;28;45387;-66
2022/10/29 09:18:37;;;;;;;;;17.00;15.00;;;;;20.23;60.61;101078.50;5011879;28;45395;-63
2022/10/29 09:21:44;;;;;;;;;13.67;11.67;;;;;20.30;60.86;101066.13;5015776;28;45387;-62
2022/10/29 09:24:39;;;;;;;;;15.67;14.67;;;;;20.38;60.44;101069.03;5024769;28;45352;-63
2022/10/29 09:27:14;;;;;;;;;13.67;12.67;;;;;20.36;60.25;101054.81;5012248;28;45981;-63
2022/10/29 09:30:01;;;;;;;;;12.00;11.00;;;;;20.43;60.26;101065.94;5010663;28;45324;-62
2022/10/29 09:32:46;;;;;;;;;16.33;14.00;;;;;20.45;60.12;101062.13;5019662;28;45450;-63
2022/10/29 09:35:14;;;;;;;;;12.33;12.33;;;;;20.47;59.88;101056.56;5029658;28;46377;-63
2022/10/29 09:37:48;;;;;;;;;20.67;12.67;;;;;20.46;59.41;101050.31;5024684;28;45597;-62
2022/10/29 09:40:37;;;;;;;;;14.67;12.67;;;;;20.64;59.66;101057.75;5013889;28;45403;-63
2022/10/29 09:43:36;;;;;;;;;17.67;14.67;;;;;20.70;59.46;101063.44;5014290;28;45482;-61
2022/10/29 09:46:39;;;;;;;;;14.33;13.00;;;;;20.79;59.41;101059.88;5012958;28;46308;-63
2022/10/29 09:49:39;;;;;;;;;18.00;15.00;;;;;20.86;60.25;101052.09;5033351;28;45284;-57
2022/10/29 09:52:18;;;;;;;;;11.00;11.00;;;;;20.93;57.47;101053.22;5045875;28;45326;-59
2022/10/29 09:54:44;;;;;;;;;12.00;9.00;;;;;21.01;57.57;101049.81;5015480;28;45383;-60
2022/10/29 09:57:18;;;;;;;;;13.33;11.67;;;;;21.11;58.23;101040.72;5018034;28;47033;-63
2022/10/29 09:59:50;;;;;;;;;13.67;13.67;;;;;21.19;57.85;101048.94;5020997;28;46011;-59
2022/10/29 10:02:48;;;;;;;;;13.67;12.67;;;;;21.24;56.94;101035.00;5017448;28;45476;-58
2022/10/29 10:05:17;;;;;;;;;13.00;13.00;;;;;21.34;56.13;101035.00;5012613;28;46561;-58
2022/10/29 10:08:12;;;;;;;;;17.00;12.00;;;;;21.38;56.54;101041.84;5017227;28;46043;-57
2022/10/29 10:10:50;;;;;;;;;3.00;0.00;;;;;21.45;55.13;101048.38;5016504;28;45337;-57
2022/10/29 10:13:17;;;;;;;;;18.33;10.00;;;;;21.51;55.93;101044.25;5006636;28;45535;-56
2022/10/29 10:15:50;;;;;;;;;13.00;11.00;;;;;21.60;56.40;101040.66;5015779;28;45533;-59
2022/10/29 10:18:22;;;;;;;;;11.67;10.67;;;;;21.70;55.67;101042.34;5013134;28;46406;-58
2022/10/29 10:21:23;;;;;;;;;15.33;13.67;;;;;21.75;55.81;101039.22;5015853;28;45386;-56
2022/10/29 10:23:51;;;;;;;;;10.75;10.25;;;;;21.77;56.12;101051.59;5011838;28;45561;-58
2022/10/29 10:26:31;;;;;;;;;16.00;12.75;;;;;21.85;55.19;101042.72;5014546;28;45326;-58
2022/10/29 10:29:16;;;;;;;;;15.00;13.67;;;;;21.87;55.95;101035.28;5015355;28;46220;-58
2022/10/29 10:31:44;;;;;;;;;11.25;11.25;;;;;21.97;54.83;101043.38;5005830;28;45317;-57
2022/10/29 10:34:17;;;;;;;;;13.75;12.50;;;;;22.01;53.90;101036.69;5014140;28;45753;-56
2022/10/29 10:36:48;;;;;;;;;13.00;11.00;;;;;22.13;54.89;101032.78;5012675;28;47302;-59
2022/10/29 10:39:21;;;;;;;;;13.75;12.00;;;;;22.17;53.42;101028.81;5012791;28;46653;-58
2022/10/29 10:41:49;;;;;;;;;15.25;12.25;;;;;22.23;54.92;101033.59;5016399;28;45282;-63
2022/10/29 10:44:15;;;;;;;;;12.75;12.75;;;;;22.28;53.57;101023.19;5017512;28;45525;-59
2022/10/29 10:46:43;;;;;;;;;17.50;12.00;;;;;22.42;53.15;101031.81;5022571;28;45518;-66
2022/10/29 10:49:16;;;;;;;;;12.50;12.50;;;;;22.56;52.73;101023.16;5017616;28;46260;-63
2022/10/29 10:51:53;;;;;;;;;18.00;12.25;;;;;22.74;52.65;101009.59;5021724;28;46734;-66
2022/10/29 10:54:26;;;;;;;;;9.00;9.00;;;;;22.72;51.87;101012.47;5017526;28;45471;-65
2022/10/29 10:57:01;;;;;;;;;17.75;13.00;;;;;22.76;51.67;101003.00;5018356;28;45253;-62
2022/10/29 10:59:52;;;;;;;;;12.25;12.25;;;;;22.83;51.74;100993.28;5015088;28;46261;-64
2022/10/29 11:02:54;;;;;;;;;11.00;9.75;;;;;22.97;51.73;100988.31;5017706;28;45160;-62
2022/10/29 11:05:26;;;;;;;;;14.50;13.75;;;;;22.88;50.15;100969.25;5013992;28;45284;-61
2022/10/29 11:08:24;;;;;;;;;15.00;15.00;;;;;22.90;52.09;100982.66;5020636;28;45275;-62
2022/10/29 11:10:58;;;;;;;;;12.25;11.25;;;;;22.88;50.61;100980.09;5018003;28;45558;-69
2022/10/29 11:13:27;;;;;;;;;18.00;11.75;;;;;22.89;51.75;100979.09;5020425;28;45414;-62
2022/10/29 11:16:01;;;;;;;;;13.50;12.50;;;;;22.92;50.98;100986.94;5041766;28;45382;-67
2022/10/29 11:18:38;;;;;;;;;13.25;11.50;;;;;22.93;51.05;100988.66;5022725;28;45180;-69
2022/10/29 11:21:13;;;;;;;;;12.25;12.25;;;;;22.89;51.40;100989.09;5017194;28;45776;-65
2022/10/29 11:23:39;;;;;;;;;11.00;10.75;;;;;22.92;51.88;100997.78;5015261;28;45517;-62